Terminal Aerodrome Forecast
Issued by NWS

Home | Current Version | Previous Version | Text Only | Print | Product List | Glossary On
Versions: 1 2 3 4 5 6 7 8 9 10 11 12 13 14 15 16 17 18
468
FTUS43 KGRR 300856 AAA
TAFJXN
TAF AMD
KJXN 300856Z 3009/3106 06010KT P6SM -SHRA OVC040
      TEMPO 3010/3013 3SM -TSRA BR OVC025CB
     FM301300 08016G23KT 2SM -RA BR OVC015
     FM301800 09015G22KT 2SM -SHRA BR OVC005
     FM302200 09012KT 1 1/2SM BR VCTS OVC004CB
     FM310200 08008KT 2SM -DZ BR OVC003=

USA.gov is the U.S. government's official web portal to all federal, state and local government web resources and services.